Time;durP1;ratioP1;P1;durP2;ratioP2;P2;SDS_P1;SDS_P2;PMS_P1;PMS_P2;Temp;Humidity;BMP_temperature;BMP_pressure;BME280_temperature;BME280_humidity;BME280_pressure;Samples;Min_cycle;Max_cycle;Signal;HPM_P1;HPM_P2
2023/06/09 00:00:55;;;;;;;7.88;5.63;;;19.20;99.90;;;;;;4891801;29;20755;-63
2023/06/09 00:03:22;;;;;;;7.93;6.25;;;19.20;99.90;;;;;;4890522;29;20225;-64
2023/06/09 00:05:49;;;;;;;6.00;5.30;;;19.20;99.90;;;;;;4891807;29;20186;-65
2023/06/09 00:08:17;;;;;;;7.35;5.95;;;19.10;99.90;;;;;;4886616;29;20284;-63
2023/06/09 00:10:44;;;;;;;9.85;6.07;;;19.10;99.90;;;;;;4883776;29;20201;-62
2023/06/09 00:13:11;;;;;;;6.45;5.60;;;19.00;99.90;;;;;;4890980;29;20201;-63
2023/06/09 00:15:38;;;;;;;11.57;6.43;;;18.90;99.90;;;;;;4890385;29;20207;-63
2023/06/09 00:18:05;;;;;;;10.27;6.78;;;18.90;99.90;;;;;;4880549;29;20280;-62
2023/06/09 00:20:34;;;;;;;9.27;6.45;;;18.80;99.90;;;;;;4892227;29;20208;-62
2023/06/09 00:23:02;;;;;;;7.82;5.68;;;18.80;99.90;;;;;;4890292;29;20635;-66
2023/06/09 00:25:29;;;;;;;7.45;5.65;;;18.70;99.90;;;;;;4882986;29;20205;-62
2023/06/09 00:27:56;;;;;;;7.38;5.95;;;18.70;99.90;;;;;;4892128;29;20208;-62
2023/06/09 00:30:23;;;;;;;8.00;6.70;;;18.60;99.90;;;;;;4891577;29;20205;-62
2023/06/09 00:32:53;;;;;;;9.57;6.15;;;18.50;99.90;;;;;;4876817;29;20671;-62
2023/06/09 00:35:20;;;;;;;6.60;5.82;;;18.50;99.90;;;;;;4877142;29;20347;-62
2023/06/09 00:37:48;;;;;;;9.73;5.88;;;18.50;99.90;;;;;;4874302;29;20692;-62
2023/06/09 00:40:15;;;;;;;8.15;6.13;;;18.50;99.90;;;;;;4890533;29;20205;-62
2023/06/09 00:42:42;;;;;;;7.38;5.70;;;18.50;99.90;;;;;;4878918;29;20720;-62
2023/06/09 00:45:09;;;;;;;8.43;6.20;;;18.50;99.90;;;;;;4890549;29;20645;-62
2023/06/09 00:47:36;;;;;;;10.30;6.10;;;18.50;99.90;;;;;;4882864;29;20369;-62
2023/06/09 00:50:04;;;;;;;8.55;5.57;;;18.40;99.90;;;;;;4891040;29;20552;-62
2023/06/09 00:52:31;;;;;;;8.73;5.75;;;18.40;99.90;;;;;;4890372;29;20209;-63
2023/06/09 00:54:59;;;;;;;7.88;6.00;;;18.40;99.90;;;;;;4879051;29;20409;-63
2023/06/09 00:57:26;;;;;;;9.55;6.28;;;18.40;99.90;;;;;;4878762;29;20564;-62
2023/06/09 00:59:53;;;;;;;11.52;6.63;;;18.40;99.90;;;;;;4879389;29;20212;-62
2023/06/09 01:02:20;;;;;;;8.57;5.88;;;18.30;99.90;;;;;;4867594;29;20711;-62
2023/06/09 01:04:49;;;;;;;10.70;6.03;;;18.20;99.90;;;;;;4874371;23;20664;-66
2023/06/09 01:07:57;;;;;;;8.98;5.60;;;18.20;99.90;;;;;;4850578;29;20550;-66
2023/06/09 01:10:33;;;;;;;8.27;5.78;;;18.10;99.90;;;;;;4826572;29;20316;-67
2023/06/09 01:13:15;;;;;;;8.68;6.20;;;18.00;99.90;;;;;;4852669;29;20224;-68
2023/06/09 01:15:49;;;;;;;9.25;6.90;;;17.80;99.90;;;;;;4852530;29;20206;-67
2023/06/09 01:18:17;;;;;;;8.32;6.60;;;17.80;99.90;;;;;;4871910;29;20651;-68
2023/06/09 01:21:06;;;;;;;8.48;6.80;;;17.80;99.90;;;;;;4868704;29;20663;-68
2023/06/09 01:24:04;;;;;;;7.57;6.40;;;17.90;99.90;;;;;;4873014;29;20201;-68
2023/06/09 01:26:32;;;;;;;9.45;6.68;;;17.40;99.90;;;;;;4854857;29;20236;-67
2023/06/09 01:28:59;;;;;;;8.18;6.68;;;17.00;99.90;;;;;;4872037;29;20190;-67
2023/06/09 01:31:27;;;;;;;10.65;7.55;;;16.70;99.90;;;;;;4869545;29;20667;-69
2023/06/09 01:33:55;;;;;;;9.35;7.53;;;16.70;99.90;;;;;;4839756;29;20577;-68
2023/06/09 01:36:22;;;;;;;9.50;6.45;;;16.80;99.90;;;;;;4842823;29;20370;-66
2023/06/09 01:38:49;;;;;;;8.90;7.13;;;17.00;99.90;;;;;;4858485;29;20716;-66
2023/06/09 01:41:16;;;;;;;7.55;6.70;;;17.10;99.90;;;;;;4854520;29;20218;-65
2023/06/09 01:43:43;;;;;;;10.07;6.88;;;17.20;99.90;;;;;;4857242;29;20208;-65
2023/06/09 01:46:10;;;;;;;8.73;6.53;;;17.30;99.90;;;;;;4853913;29;20208;-65
2023/06/09 01:48:46;;;;;;;7.68;5.97;;;17.30;99.90;;;;;;4841625;29;20206;-68
2023/06/09 01:51:24;;;;;;;8.38;6.05;;;17.40;99.90;;;;;;4876572;29;20623;-70
2023/06/09 01:54:00;;;;;;;9.30;6.88;;;17.50;99.90;;;;;;4868731;29;20205;-69
2023/06/09 01:56:42;;;;;;;13.20;7.95;;;17.50;99.90;;;;;;4858018;29;20212;-66
2023/06/09 01:59:17;;;;;;;9.38;7.50;;;17.50;99.90;;;;;;4846541;29;20216;-69
2023/06/09 02:01:47;;;;;;;12.98;8.48;;;17.30;99.90;;;;;;4872268;29;20233;-68
2023/06/09 02:04:16;;;;;;;16.02;11.25;;;17.30;99.90;;;;;;4839869;29;20565;-68
2023/06/09 02:06:43;;;;;;;13.20;9.90;;;17.30;99.90;;;;;;4851340;29;20287;-67
2023/06/09 02:09:11;;;;;;;15.05;10.07;;;17.50;99.90;;;;;;4851922;29;20198;-68
2023/06/09 02:11:38;;;;;;;13.98;9.25;;;17.60;99.90;;;;;;4853897;29;20585;-68
2023/06/09 02:14:15;;;;;;;12.35;9.02;;;17.70;99.90;;;;;;4856976;29;20214;-68
2023/06/09 02:16:42;;;;;;;13.18;8.65;;;17.80;99.90;;;;;;4855558;29;20552;-68
2023/06/09 02:19:12;;;;;;;11.30;8.25;;;17.80;99.90;;;;;;4853815;29;20209;-69
2023/06/09 02:21:39;;;;;;;11.27;7.68;;;17.80;99.90;;;;;;4850887;29;20381;-67
2023/06/09 02:24:06;;;;;;;12.18;9.48;;;17.80;99.90;;;;;;4855442;29;20651;-68
2023/06/09 02:26:34;;;;;;;13.85;9.45;;;17.80;99.90;;;;;;4854486;29;20205;-69
2023/06/09 02:29:02;;;;;;;8.15;6.50;;;17.80;99.90;;;;;;4854499;29;20205;-68
2023/06/09 02:31:30;;;;;;;7.68;6.75;;;17.50;99.90;;;;;;4851992;29;20253;-67
2023/06/09 02:34:00;;;;;;;9.77;7.72;;;17.30;99.90;;;;;;4838639;29;20678;-67
2023/06/09 02:36:28;;;;;;;9.85;7.20;;;17.30;99.90;;;;;;4834660;29;20210;-66
2023/06/09 02:38:55;;;;;;;9.07;6.82;;;17.30;99.90;;;;;;4852816;29;20274;-68
2023/06/09 02:41:22;;;;;;;9.38;7.35;;;17.30;99.90;;;;;;4848125;29;20278;-67
2023/06/09 02:43:50;;;;;;;8.10;6.47;;;17.40;99.90;;;;;;4837512;29;20334;-60
2023/06/09 02:46:17;;;;;;;8.63;6.50;;;17.50;99.90;;;;;;4850926;29;20213;-61
2023/06/09 02:48:45;;;;;;;8.52;6.40;;;17.50;99.90;;;;;;4835680;29;20202;-61
2023/06/09 02:51:13;;;;;;;8.65;6.78;;;17.50;99.90;;;;;;4852249;29;20577;-61
2023/06/09 02:53:40;;;;;;;9.18;6.60;;;17.50;99.90;;;;;;4849414;29;20575;-64
2023/06/09 02:56:10;;;;;;;9.55;6.70;;;17.40;99.90;;;;;;4848900;29;20268;-62
2023/06/09 02:58:46;;;;;;;10.55;6.70;;;17.30;99.90;;;;;;4848639;29;20289;-62
2023/06/09 03:01:17;;;;;;;11.57;7.35;;;17.10;99.90;;;;;;4851481;29;20566;-66
2023/06/09 03:03:46;;;;;;;8.43;6.85;;;16.90;99.90;;;;;;4851776;29;20247;-69
2023/06/09 03:06:15;;;;;;;8.13;6.43;;;16.80;99.90;;;;;;4854737;29;20226;-67
2023/06/09 03:08:43;;;;;;;8.18;7.05;;;16.90;99.90;;;;;;4851657;29;20721;-70
2023/06/09 03:11:11;;;;;;;8.15;6.68;;;17.10;99.90;;;;;;4857741;29;20207;-67
2023/06/09 03:13:41;;;;;;;11.40;7.30;;;17.10;99.90;;;;;;4851367;29;20193;-68
2023/06/09 03:16:08;;;;;;;10.93;7.57;;;16.70;99.90;;;;;;4850333;29;20370;-68
2023/06/09 03:18:36;;;;;;;14.07;7.53;;;16.50;99.90;;;;;;4854794;29;20222;-69
2023/06/09 03:21:04;;;;;;;11.27;6.45;;;16.40;99.90;;;;;;4852827;29;20191;-67
2023/06/09 03:23:35;;;;;;;9.90;7.60;;;16.20;99.90;;;;;;4853092;29;20816;-67
2023/06/09 03:26:03;;;;;;;13.05;8.02;;;16.00;99.90;;;;;;4837819;29;20201;-68
2023/06/09 03:28:31;;;;;;;9.02;6.88;;;16.40;99.90;;;;;;4854004;29;20218;-68
2023/06/09 03:30:58;;;;;;;10.48;7.10;;;16.20;99.90;;;;;;4854752;29;20633;-68
2023/06/09 03:33:26;;;;;;;9.80;7.25;;;16.40;99.90;;;;;;4851917;29;20238;-68
2023/06/09 03:35:56;;;;;;;7.38;5.88;;;16.60;99.90;;;;;;4852688;29;20229;-68
2023/06/09 03:38:26;;;;;;;13.07;8.40;;;16.40;99.90;;;;;;4851507;29;20218;-68
2023/06/09 03:40:53;;;;;;;8.45;6.40;;;16.60;99.90;;;;;;4852090;29;20237;-68
2023/06/09 03:43:21;;;;;;;8.90;6.43;;;16.30;99.90;;;;;;4837090;29;20704;-68
2023/06/09 03:45:49;;;;;;;9.20;6.72;;;16.50;99.90;;;;;;4851035;29;20195;-67
2023/06/09 03:48:16;;;;;;;7.68;6.47;;;16.20;99.90;;;;;;4853158;29;20234;-69
2023/06/09 03:50:44;;;;;;;9.55;6.47;;;16.50;99.90;;;;;;4848513;29;20190;-68
2023/06/09 03:53:12;;;;;;;9.20;6.20;;;16.70;99.90;;;;;;4851700;29;20214;-68
2023/06/09 03:55:40;;;;;;;7.50;5.70;;;17.10;99.90;;;;;;4848706;29;20202;-68
2023/06/09 03:58:10;;;;;;;9.73;6.47;;;17.60;99.90;;;;;;4837476;29;20744;-68
2023/06/09 04:00:37;;;;;;;8.27;6.03;;;18.50;99.90;;;;;;4850378;29;20199;-68
2023/06/09 04:03:06;;;;;;;7.80;6.25;;;18.60;99.90;;;;;;4845010;29;20226;-66
2023/06/09 04:05:33;;;;;;;8.23;6.05;;;18.90;99.90;;;;;;4854993;29;20197;-67
2023/06/09 04:08:01;;;;;;;9.57;5.80;;;19.10;99.90;;;;;;4866166;29;20194;-68
2023/06/09 04:10:28;;;;;;;8.93;6.68;;;19.30;99.90;;;;;;4856208;29;20197;-68
2023/06/09 04:12:55;;;;;;;8.98;5.80;;;19.50;99.90;;;;;;4856284;29;20201;-68
2023/06/09 04:15:23;;;;;;;6.45;5.85;;;19.40;99.90;;;;;;4856619;29;20217;-67
2023/06/09 04:17:52;;;;;;;9.48;6.15;;;19.30;99.90;;;;;;4840178;29;20623;-67
2023/06/09 04:20:24;;;;;;;7.55;5.82;;;19.70;99.90;;;;;;4839212;29;20206;-68
2023/06/09 04:22:53;;;;;;;6.25;5.65;;;20.20;99.90;;;;;;4855042;29;20229;-66
2023/06/09 04:25:27;;;;;;;8.35;5.85;;;20.50;99.90;;;;;;4849008;29;20301;-67
2023/06/09 04:28:00;;;;;;;8.52;6.50;;;20.70;99.90;;;;;;4855972;29;20215;-68
2023/06/09 04:30:29;;;;;;;7.43;6.05;;;20.90;99.90;;;;;;4851776;29;20209;-68
2023/06/09 04:32:58;;;;;;;12.02;6.28;;;21.10;99.90;;;;;;4850990;29;20209;-68
2023/06/09 04:35:26;;;;;;;5.93;4.85;;;21.50;99.90;;;;;;4854111;29;20752;-68
2023/06/09 04:37:53;;;;;;;8.35;5.80;;;21.70;99.90;;;;;;4840207;29;20224;-66
2023/06/09 04:40:25;;;;;;;8.38;5.65;;;22.00;99.90;;;;;;4855624;29;20774;-66
2023/06/09 04:42:56;;;;;;;7.53;5.95;;;22.10;99.90;;;;;;4840640;29;20723;-66
2023/06/09 04:45:34;;;;;;;9.35;5.72;;;22.30;99.90;;;;;;4869150;29;20201;-68
2023/06/09 04:48:10;;;;;;;6.97;5.72;;;22.50;99.90;;;;;;4851770;29;20194;-66
2023/06/09 04:50:37;;;;;;;7.55;5.50;;;22.80;99.90;;;;;;4854910;29;20780;-66
2023/06/09 04:53:07;;;;;;;6.90;5.25;;;23.00;99.90;;;;;;4853863;29;20281;-66
2023/06/09 04:55:45;;;;;;;7.75;5.45;;;23.30;99.90;;;;;;4836604;29;20193;-66
2023/06/09 04:58:14;;;;;;;8.10;5.40;;;23.70;99.90;;;;;;4855379;29;20515;-66
2023/06/09 05:00:42;;;;;;;8.15;5.15;;;23.90;99.90;;;;;;4853973;29;20206;-66
2023/06/09 05:03:13;;;;;;;6.57;5.28;;;23.90;99.90;;;;;;4852526;29;20937;-66
2023/06/09 05:05:42;;;;;;;7.05;5.25;;;24.00;99.90;;;;;;4870040;29;20593;-66
2023/06/09 05:08:09;;;;;;;7.75;5.50;;;24.40;99.90;;;;;;4851690;29;20193;-66
2023/06/09 05:10:37;;;;;;;6.53;5.18;;;24.40;99.90;;;;;;4847822;29;20209;-66
2023/06/09 05:13:05;;;;;;;6.10;4.88;;;24.60;99.90;;;;;;4838436;29;20301;-66
2023/06/09 05:15:33;;;;;;;6.50;5.32;;;24.80;99.90;;;;;;4854325;29;20261;-66
2023/06/09 05:18:00;;;;;;;5.85;4.57;;;25.00;99.90;;;;;;4854966;29;20216;-66
2023/06/09 05:20:28;;;;;;;8.90;4.90;;;25.10;99.90;;;;;;4852178;29;20296;-66
2023/06/09 05:22:55;;;;;;;8.50;4.80;;;25.40;99.90;;;;;;4851825;29;20248;-66
2023/06/09 05:25:22;;;;;;;5.75;4.85;;;25.70;99.90;;;;;;4839486;29;20296;-66
2023/06/09 05:27:50;;;;;;;8.35;5.22;;;25.40;99.90;;;;;;4837778;29;20197;-66
2023/06/09 05:30:18;;;;;;;7.40;5.13;;;25.20;99.90;;;;;;4854219;29;20197;-67
2023/06/09 05:32:45;;;;;;;7.45;4.78;;;25.30;99.90;;;;;;4853153;29;20197;-66
2023/06/09 05:35:12;;;;;;;5.75;4.78;;;25.50;99.90;;;;;;4837112;29;20708;-66
2023/06/09 05:37:49;;;;;;;6.47;5.15;;;25.40;99.90;;;;;;4832223;29;20202;-67
2023/06/09 05:40:17;;;;;;;5.95;4.65;;;25.40;99.90;;;;;;4853954;29;20212;-66
2023/06/09 05:42:46;;;;;;;8.20;5.25;;;25.80;99.90;;;;;;4852662;29;20702;-66
2023/06/09 05:45:13;;;;;;;5.50;4.35;;;25.20;99.90;;;;;;4833923;29;20214;-67
2023/06/09 05:47:40;;;;;;;5.35;4.38;;;25.70;99.90;;;;;;4854305;29;20254;-67
2023/06/09 05:50:07;;;;;;;5.57;4.35;;;26.40;99.90;;;;;;4872305;29;20224;-67
2023/06/09 05:52:35;;;;;;;4.97;4.43;;;26.70;99.90;;;;;;4853724;29;20205;-67
2023/06/09 05:55:02;;;;;;;5.72;4.63;;;26.70;99.90;;;;;;4871878;29;20424;-67
2023/06/09 05:57:32;;;;;;;5.07;4.32;;;26.70;99.90;;;;;;4861361;29;20210;-67
2023/06/09 06:00:05;;;;;;;5.80;4.50;;;27.00;99.90;;;;;;4860343;29;20186;-67
2023/06/09 06:02:38;;;;;;;6.18;4.68;;;26.80;99.90;;;;;;4844928;29;20206;-67
2023/06/09 06:05:06;;;;;;;4.70;4.18;;;26.60;99.90;;;;;;4865228;29;20703;-67
2023/06/09 06:07:37;;;;;;;5.50;4.20;;;27.10;99.90;;;;;;4865949;29;20228;-67
2023/06/09 06:10:05;;;;;;;4.32;3.88;;;27.60;99.90;;;;;;4852228;29;20212;-67
2023/06/09 06:12:33;;;;;;;5.15;3.65;;;27.90;99.90;;;;;;4836326;29;20700;-67
2023/06/09 06:15:00;;;;;;;3.88;3.58;;;27.70;99.90;;;;;;4870840;29;20262;-67
2023/06/09 06:17:27;;;;;;;5.55;4.00;;;27.90;99.90;;;;;;4854540;29;20217;-66
2023/06/09 06:19:54;;;;;;;5.20;4.20;;;28.40;99.90;;;;;;4856079;29;20258;-66
2023/06/09 06:22:21;;;;;;;5.97;3.65;;;28.60;99.90;;;;;;4855492;29;20217;-67
2023/06/09 06:24:48;;;;;;;5.30;3.55;;;27.50;99.90;;;;;;4855521;29;20702;-67
2023/06/09 06:27:16;;;;;;;8.43;3.97;;;27.90;99.90;;;;;;4855747;29;20261;-67
2023/06/09 06:29:43;;;;;;;5.53;3.60;;;28.30;99.90;;;;;;4867110;29;20194;-67
2023/06/09 06:32:10;;;;;;;5.85;3.90;;;28.40;99.90;;;;;;4854996;29;20195;-67
2023/06/09 06:34:37;;;;;;;3.97;3.42;;;28.60;99.90;;;;;;4857070;29;20517;-66
2023/06/09 06:37:04;;;;;;;4.07;3.67;;;28.30;99.90;;;;;;4853103;29;20667;-66
2023/06/09 06:39:31;;;;;;;3.92;3.53;;;27.80;99.90;;;;;;4851916;29;20288;-66
2023/06/09 06:41:58;;;;;;;7.25;4.05;;;28.10;99.90;;;;;;4872051;29;20200;-66
2023/06/09 06:44:32;;;;;;;5.22;3.75;;;28.40;99.90;;;;;;4849553;29;20295;-66
2023/06/09 06:46:59;;;;;;;5.07;3.92;;;28.10;99.90;;;;;;4849123;29;20212;-66
2023/06/09 06:49:26;;;;;;;4.55;3.90;;;28.20;99.90;;;;;;4871428;29;20194;-66
2023/06/09 06:51:53;;;;;;;4.65;3.83;;;28.50;99.90;;;;;;4872389;29;20201;-66
2023/06/09 06:54:20;;;;;;;6.93;3.65;;;28.30;99.90;;;;;;4846787;29;20209;-66
2023/06/09 06:56:47;;;;;;;3.88;3.47;;;29.40;99.90;;;;;;4872888;29;20608;-66
2023/06/09 06:59:14;;;;;;;5.55;3.40;;;29.60;99.90;;;;;;4854155;29;20611;-67
2023/06/09 07:01:42;;;;;;;5.03;4.03;;;30.10;99.90;;;;;;4870509;29;20229;-66
2023/06/09 07:04:09;;;;;;;5.10;3.90;;;30.30;99.90;;;;;;4870088;29;20240;-66
2023/06/09 07:06:37;;;;;;;4.20;3.58;;;31.00;99.90;;;;;;4855800;29;20221;-66
2023/06/09 07:09:04;;;;;;;4.63;3.30;;;30.80;99.90;;;;;;4857556;29;20214;-66
2023/06/09 07:11:32;;;;;;;3.78;3.47;;;31.60;99.90;;;;;;4855280;29;20201;-66
2023/06/09 07:13:59;;;;;;;5.10;3.63;;;31.40;99.90;;;;;;4873852;29;20735;-66
2023/06/09 07:16:26;;;;;;;4.43;3.83;;;31.70;99.90;;;;;;4864694;29;20704;-59
2023/06/09 07:18:53;;;;;;;3.83;3.40;;;32.30;99.90;;;;;;4851680;29;20206;-59
2023/06/09 07:21:20;;;;;;;3.70;3.35;;;33.10;99.90;;;;;;4869729;29;20651;-59
2023/06/09 07:23:47;;;;;;;4.05;3.60;;;31.60;99.90;;;;;;4855913;29;20225;-59
2023/06/09 07:26:14;;;;;;;3.67;3.13;;;32.40;99.90;;;;;;4855265;29;20202;-59
2023/06/09 07:28:41;;;;;;;6.32;3.90;;;32.90;99.90;;;;;;4852709;29;20206;-58
2023/06/09 07:31:09;;;;;;;7.07;3.60;;;32.70;99.90;;;;;;4865133;29;20700;-58
2023/06/09 07:33:40;;;;;;;4.05;3.53;;;32.50;99.90;;;;;;4857241;29;20292;-58
2023/06/09 07:36:11;;;;;;;5.35;3.38;;;33.20;99.90;;;;;;4870366;29;20194;-58
2023/06/09 07:38:39;;;;;;;6.30;3.83;;;33.60;99.90;;;;;;4866959;29;20210;-57
2023/06/09 07:41:06;;;;;;;4.43;3.65;;;32.90;99.90;;;;;;4854085;29;20233;-59
2023/06/09 07:43:33;;;;;;;5.35;3.10;;;31.80;99.90;;;;;;4846657;29;20217;-58
2023/06/09 07:46:00;;;;;;;5.25;3.40;;;33.30;99.90;;;;;;4849703;29;20657;-58
2023/06/09 07:48:27;;;;;;;5.78;3.25;;;33.10;99.90;;;;;;4838520;29;20202;-58
2023/06/09 07:50:54;;;;;;;4.80;3.53;;;33.10;99.90;;;;;;4856489;29;20210;-59
2023/06/09 07:53:27;;;;;;;6.50;3.42;;;32.60;99.90;;;;;;4836278;29;20682;-58
2023/06/09 07:55:55;;;;;;;5.50;3.80;;;32.70;99.90;;;;;;4853578;29;20675;-60
2023/06/09 07:58:22;;;;;;;5.18;3.90;;;31.90;99.90;;;;;;4859857;29;20691;-59
2023/06/09 08:00:51;;;;;;;4.35;3.33;;;32.70;99.90;;;;;;4866205;29;20289;-59
2023/06/09 08:03:18;;;;;;;5.53;3.20;;;33.20;99.90;;;;;;4853106;29;20293;-58
2023/06/09 08:05:46;;;;;;;7.25;3.70;;;32.90;99.90;;;;;;4865847;29;20537;-58
2023/06/09 08:08:13;;;;;;;3.92;3.55;;;32.10;99.90;;;;;;4869417;29;20726;-58
2023/06/09 08:10:40;;;;;;;4.93;3.70;;;32.10;99.90;;;;;;4864325;29;20249;-57
2023/06/09 08:13:08;;;;;;;5.35;4.07;;;33.30;99.90;;;;;;4865351;29;20200;-57
2023/06/09 08:15:36;;;;;;;4.95;3.65;;;32.60;99.90;;;;;;4863506;29;20692;-57
2023/06/09 08:18:03;;;;;;;4.50;3.58;;;32.90;99.90;;;;;;4869331;29;20197;-57
2023/06/09 08:20:31;;;;;;;4.25;3.75;;;33.00;99.90;;;;;;4854296;29;20202;-57
2023/06/09 08:22:58;;;;;;;4.43;3.50;;;32.90;99.90;;;;;;4866875;29;20751;-58
2023/06/09 08:25:25;;;;;;;4.75;3.63;;;32.90;99.90;;;;;;4853068;29;20281;-58
2023/06/09 08:27:52;;;;;;;8.18;3.47;;;33.10;99.90;;;;;;4849608;29;20202;-57
2023/06/09 08:30:19;;;;;;;6.57;3.88;;;32.20;99.90;;;;;;4870145;29;20194;-58
2023/06/09 08:32:46;;;;;;;7.43;3.80;;;34.10;99.90;;;;;;4865965;29;20222;-58
2023/06/09 08:35:14;;;;;;;5.45;3.78;;;34.70;99.90;;;;;;4853386;29;20502;-58
2023/06/09 08:37:41;;;;;;;5.25;3.75;;;34.60;99.90;;;;;;4866761;29;20198;-58
2023/06/09 08:40:09;;;;;;;3.45;3.15;;;33.50;99.90;;;;;;4849524;29;20336;-59
2023/06/09 08:42:39;;;;;;;4.72;3.63;;;33.40;99.90;;;;;;4870133;29;20553;-59
2023/06/09 08:45:07;;;;;;;6.25;3.90;;;33.90;99.90;;;;;;4852562;29;20656;-59
2023/06/09 08:47:36;;;;;;;3.90;3.50;;;33.90;99.90;;;;;;4853505;29;20190;-60
2023/06/09 08:50:05;;;;;;;5.22;3.90;;;33.90;99.90;;;;;;4847537;29;20189;-59
2023/06/09 08:52:34;;;;;;;5.63;4.20;;;33.70;99.30;;;;;;4865480;29;20269;-58
2023/06/09 08:55:03;;;;;;;5.85;4.00;;;33.50;99.80;;;;;;4846748;29;20202;-59
2023/06/09 08:57:32;;;;;;;3.65;3.35;;;33.30;99.30;;;;;;4847554;29;20645;-59
2023/06/09 08:59:59;;;;;;;4.07;3.60;;;34.90;99.80;;;;;;4862874;29;20471;-58
2023/06/09 09:02:26;;;;;;;5.63;3.75;;;35.10;97.80;;;;;;4864920;29;20814;-59
2023/06/09 09:04:53;;;;;;;6.38;3.60;;;34.10;98.20;;;;;;4846636;29;20752;-59
2023/06/09 09:07:21;;;;;;;4.28;3.88;;;34.80;98.70;;;;;;4824047;29;20829;-59
2023/06/09 09:09:48;;;;;;;3.55;3.10;;;34.10;97.50;;;;;;4850578;29;20208;-59
2023/06/09 09:12:15;;;;;;;9.90;3.42;;;34.80;98.10;;;;;;4867287;29;20200;-59
2023/06/09 09:14:43;;;;;;;4.72;4.18;;;33.80;97.30;;;;;;4866906;29;20204;-59
2023/06/09 09:17:13;;;;;;;4.47;3.53;;;34.50;97.00;;;;;;4861982;29;20323;-59
2023/06/09 09:19:45;;;;;;;3.95;3.22;;;34.90;96.70;;;;;;4848249;29;20203;-59
2023/06/09 09:22:13;;;;;;;4.68;3.60;;;34.20;95.80;;;;;;4845676;29;20237;-59
2023/06/09 09:24:43;;;;;;;3.45;3.15;;;34.40;96.00;;;;;;4863379;29;20218;-59
2023/06/09 09:27:21;;;;;;;3.70;3.38;;;33.90;96.60;;;;;;4861403;29;20193;-59
2023/06/09 09:29:48;;;;;;;5.93;3.58;;;33.60;95.90;;;;;;4867147;29;20189;-65
2023/06/09 09:32:16;;;;;;;3.40;3.10;;;32.80;95.80;;;;;;4862566;29;20217;-68
2023/06/09 09:34:45;;;;;;;4.85;3.58;;;32.60;94.80;;;;;;4832808;29;20296;-67
2023/06/09 09:37:15;;;;;;;4.32;3.45;;;32.60;95.80;;;;;;4849789;29;20723;-67
2023/06/09 09:39:50;;;;;;;6.53;3.83;;;32.50;95.10;;;;;;4848298;29;20731;-66
2023/06/09 09:42:18;;;;;;;8.15;3.40;;;32.50;95.60;;;;;;4865192;29;20206;-67
2023/06/09 09:44:47;;;;;;;4.07;3.03;;;32.50;99.90;;;;;;4848546;29;20224;-66
2023/06/09 09:47:19;;;;;;;5.85;3.03;;;32.80;95.20;;;;;;4843893;29;20221;-68
2023/06/09 09:49:54;;;;;;;5.70;3.70;;;31.30;94.80;;;;;;4851107;29;20775;-67
2023/06/09 09:52:29;;;;;;;3.47;3.17;;;31.70;95.30;;;;;;4857433;29;20190;-68
2023/06/09 09:54:59;;;;;;;4.70;3.55;;;33.00;94.70;;;;;;4852721;29;20295;-68
2023/06/09 09:57:31;;;;;;;4.47;3.80;;;33.30;94.20;;;;;;4868503;29;20202;-67
2023/06/09 10:00:07;;;;;;;5.00;3.38;;;33.60;93.50;;;;;;4854686;29;20201;-67
2023/06/09 10:02:42;;;;;;;5.75;3.45;;;33.70;93.40;;;;;;4857851;29;20212;-66
2023/06/09 10:05:11;;;;;;;6.07;3.38;;;33.80;93.00;;;;;;4852614;29;20717;-66
2023/06/09 10:07:42;;;;;;;4.63;3.78;;;32.30;92.80;;;;;;4874099;29;20614;-67
2023/06/09 10:10:09;;;;;;;5.72;3.65;;;32.00;94.50;;;;;;4872430;29;20202;-67
2023/06/09 10:12:38;;;;;;;4.68;3.13;;;32.00;93.30;;;;;;4867029;29;20209;-67
2023/06/09 10:15:08;;;;;;;5.53;3.47;;;33.40;94.10;;;;;;4856123;29;20258;-68
2023/06/09 10:17:36;;;;;;;6.35;2.85;;;32.70;93.70;;;;;;4844317;29;20734;-67
2023/06/09 10:20:05;;;;;;;3.42;3.13;;;32.60;92.20;;;;;;4852235;29;20319;-67
2023/06/09 10:22:34;;;;;;;6.57;3.67;;;31.50;94.30;;;;;;4868713;29;20600;-67
2023/06/09 10:25:03;;;;;;;4.65;3.17;;;32.70;93.20;;;;;;4854174;29;20217;-67
2023/06/09 10:27:31;;;;;;;4.18;3.33;;;33.10;92.50;;;;;;4838637;29;20301;-67
2023/06/09 10:29:58;;;;;;;4.63;2.80;;;33.20;92.70;;;;;;4852947;29;20221;-67
2023/06/09 10:32:27;;;;;;;4.28;3.05;;;33.20;93.00;;;;;;4851805;29;21017;-67
2023/06/09 10:34:57;;;;;;;3.97;3.58;;;33.80;91.50;;;;;;4854317;29;20712;-67
2023/06/09 10:37:32;;;;;;;5.72;3.42;;;33.60;91.50;;;;;;4853238;29;20204;-67
2023/06/09 10:40:12;;;;;;;5.30;3.13;;;33.40;99.90;;;;;;4856695;29;20219;-67
2023/06/09 10:42:48;;;;;;;4.13;3.20;;;32.10;91.90;;;;;;4873285;29;20205;-67
2023/06/09 10:45:18;;;;;;;3.60;3.05;;;32.20;91.50;;;;;;4857505;29;20738;-68
2023/06/09 10:47:46;;;;;;;3.75;3.28;;;32.70;91.60;;;;;;4856721;29;20205;-68
2023/06/09 10:50:26;;;;;;;3.75;3.22;;;32.50;90.90;;;;;;4871642;29;20198;-67
2023/06/09 10:52:58;;;;;;;5.38;3.33;;;32.90;91.70;;;;;;4868779;29;20194;-66
2023/06/09 10:55:27;;;;;;;4.70;3.20;;;32.70;91.30;;;;;;4873735;29;20212;-66
2023/06/09 10:57:55;;;;;;;4.22;3.30;;;32.10;91.50;;;;;;4871398;29;20198;-67
2023/06/09 11:00:23;;;;;;;3.33;3.03;;;32.90;90.30;;;;;;4869602;29;20221;-66
2023/06/09 11:03:19;;;;;;;4.85;3.58;;;32.60;90.50;;;;;;4856664;29;20413;-67
2023/06/09 11:06:00;;;;;;;4.53;3.42;;;32.00;90.00;;;;;;4834283;29;20690;-67
2023/06/09 11:09:06;;;;;;;3.92;3.30;;;32.30;90.20;;;;;;4869850;29;20197;-67
2023/06/09 11:11:51;;;;;;;5.38;3.80;;;31.40;90.90;;;;;;4851190;29;20288;-67
2023/06/09 11:14:43;;;;;;;6.25;3.67;;;31.50;90.90;;;;;;4853354;29;20738;-67
2023/06/09 11:17:15;;;;;;;3.38;3.00;;;32.00;91.00;;;;;;4855309;29;20246;-68
2023/06/09 11:19:42;;;;;;;4.45;3.42;;;32.10;91.10;;;;;;4873135;29;20296;-68
2023/06/09 11:22:11;;;;;;;3.67;3.38;;;32.50;89.20;;;;;;4871199;29;20197;-68
2023/06/09 11:24:46;;;;;;;3.80;3.28;;;31.90;88.50;;;;;;4872636;29;20209;-68
2023/06/09 11:27:23;;;;;;;4.25;3.40;;;32.30;91.30;;;;;;4873496;29;20197;-69
2023/06/09 11:30:11;;;;;;;5.93;3.65;;;32.60;88.90;;;;;;4863128;29;20320;-69
2023/06/09 11:32:46;;;;;;;3.28;2.97;;;32.50;88.80;;;;;;4836301;29;20247;-68
2023/06/09 11:35:23;;;;;;;5.95;3.55;;;32.50;89.20;;;;;;4853245;29;20616;-68
2023/06/09 11:38:09;;;;;;;6.07;3.20;;;32.20;88.20;;;;;;4868708;29;20213;-68
2023/06/09 11:40:39;;;;;;;3.83;3.25;;;32.90;87.40;;;;;;4869002;29;20660;-68
2023/06/09 11:43:07;;;;;;;5.28;3.45;;;31.80;86.90;;;;;;4868676;29;20201;-68
2023/06/09 11:45:36;;;;;;;5.55;3.60;;;31.50;87.90;;;;;;4865830;29;20253;-67
2023/06/09 11:48:06;;;;;;;4.00;3.22;;;31.80;88.80;;;;;;4871951;29;20197;-68
2023/06/09 11:50:44;;;;;;;4.82;3.53;;;31.30;89.60;;;;;;4862008;29;20870;-69
2023/06/09 11:53:20;;;;;;;3.92;3.53;;;31.30;88.00;;;;;;4850833;29;21284;-68
2023/06/09 11:55:56;;;;;;;6.93;4.00;;;32.10;89.10;;;;;;4854007;29;20204;-70
2023/06/09 11:58:23;;;;;;;6.68;3.67;;;32.00;87.20;;;;;;4871305;29;20209;-68
2023/06/09 12:00:50;;;;;;;4.05;3.65;;;31.60;86.30;;;;;;4866316;29;20688;-69
2023/06/09 12:03:18;;;;;;;4.90;3.78;;;31.20;87.60;;;;;;4867459;29;20281;-68
2023/06/09 12:05:47;;;;;;;4.32;3.40;;;31.30;87.70;;;;;;4852357;29;20216;-68
2023/06/09 12:08:15;;;;;;;5.47;3.63;;;32.20;88.00;;;;;;4849403;29;20212;-69
2023/06/09 12:10:42;;;;;;;7.45;4.07;;;31.60;87.40;;;;;;4836553;29;20452;-69
2023/06/09 12:13:09;;;;;;;5.90;3.95;;;31.90;87.50;;;;;;4848200;29;20225;-67
2023/06/09 12:15:36;;;;;;;4.63;3.83;;;31.80;87.60;;;;;;4846501;29;20206;-68
2023/06/09 12:18:03;;;;;;;4.28;3.53;;;31.40;87.20;;;;;;4853809;29;20209;-67
2023/06/09 12:20:35;;;;;;;4.95;4.15;;;31.70;87.10;;;;;;4853904;29;20727;-67
2023/06/09 12:23:06;;;;;;;4.68;4.03;;;31.40;87.70;;;;;;4871069;29;20679;-67
2023/06/09 12:25:35;;;;;;;3.95;3.63;;;31.60;88.30;;;;;;4850376;29;20206;-60
2023/06/09 12:28:19;;;;;;;5.55;4.00;;;31.00;87.60;;;;;;4854533;29;20261;-60
2023/06/09 12:30:48;;;;;;;4.30;3.70;;;31.20;88.80;;;;;;4866856;29;20620;-59
2023/06/09 12:33:18;;;;;;;4.93;3.67;;;30.80;86.90;;;;;;4866636;29;20197;-60
2023/06/09 12:35:52;;;;;;;6.57;4.32;;;30.40;87.00;;;;;;4866311;29;20209;-60
2023/06/09 12:38:20;;;;;;;4.82;4.03;;;30.30;89.40;;;;;;4865536;29;20194;-60
2023/06/09 12:40:53;;;;;;;5.13;3.97;;;30.20;88.10;;;;;;4867362;29;20559;-59
2023/06/09 12:43:25;;;;;;;4.55;3.90;;;30.40;89.40;;;;;;4867708;29;20651;-60
2023/06/09 12:45:57;;;;;;;4.40;4.00;;;30.30;89.30;;;;;;4853858;29;20708;-60
2023/06/09 12:48:24;;;;;;;5.15;3.80;;;30.40;87.40;;;;;;4850714;29;20222;-61
2023/06/09 12:50:56;;;;;;;5.32;3.80;;;30.30;88.20;;;;;;4867958;29;20649;-61
2023/06/09 12:53:23;;;;;;;5.05;3.85;;;30.00;88.20;;;;;;4865106;29;20250;-61
2023/06/09 12:55:50;;;;;;;5.30;4.80;;;30.00;87.80;;;;;;4845157;29;20205;-61
2023/06/09 12:58:17;;;;;;;4.00;3.60;;;29.60;86.40;;;;;;4851056;29;20198;-60